sensor_id;sensor_type;location;lat;lon;timestamp;temperature;humidity
28177;DHT22;15461;41.652;9.378;2024-02-21T00:00:57;8.70;99.90
28177;DHT22;15461;41.652;9.378;2024-02-21T00:03:23;8.70;99.90
28177;DHT22;15461;41.652;9.378;2024-02-21T00:05:49;8.70;99.90
28177;DHT22;15461;41.652;9.378;2024-02-21T00:08:14;8.70;99.90
28177;DHT22;15461;41.652;9.378;2024-02-21T00:10:40;8.60;99.90
28177;DHT22;15461;41.652;9.378;2024-02-21T00:13:06;8.60;99.90
28177;DHT22;15461;41.652;9.378;2024-02-21T00:15:32;8.60;99.90
28177;DHT22;15461;41.652;9.378;2024-02-21T00:17:57;8.60;99.90
28177;DHT22;15461;41.652;9.378;2024-02-21T00:20:23;8.60;99.90
28177;DHT22;15461;41.652;9.378;2024-02-21T00:22:51;8.60;99.90
28177;DHT22;15461;41.652;9.378;2024-02-21T00:25:17;8.60;99.90
28177;DHT22;15461;41.652;9.378;2024-02-21T00:27:43;8.60;99.90
28177;DHT22;15461;41.652;9.378;2024-02-21T00:30:09;8.60;99.90
28177;DHT22;15461;41.652;9.378;2024-02-21T00:32:35;8.60;99.90
28177;DHT22;15461;41.652;9.378;2024-02-21T00:35:01;8.50;99.90
28177;DHT22;15461;41.652;9.378;2024-02-21T00:37:27;8.50;99.90
28177;DHT22;15461;41.652;9.378;2024-02-21T00:39:54;8.50;99.90
28177;DHT22;15461;41.652;9.378;2024-02-21T00:42:19;8.50;99.90
28177;DHT22;15461;41.652;9.378;2024-02-21T00:44:46;8.50;99.90
28177;DHT22;15461;41.652;9.378;2024-02-21T00:47:12;8.50;99.90
28177;DHT22;15461;41.652;9.378;2024-02-21T00:49:38;8.50;99.90
28177;DHT22;15461;41.652;9.378;2024-02-21T00:52:04;8.50;99.90
28177;DHT22;15461;41.652;9.378;2024-02-21T00:54:30;8.50;99.90
28177;DHT22;15461;41.652;9.378;2024-02-21T00:56:55;8.50;99.90
28177;DHT22;15461;41.652;9.378;2024-02-21T00:59:21;8.40;99.90
28177;DHT22;15461;41.652;9.378;2024-02-21T01:01:47;8.40;99.90
28177;DHT22;15461;41.652;9.378;2024-02-21T01:04:13;8.40;99.90
28177;DHT22;15461;41.652;9.378;2024-02-21T01:06:39;8.40;99.90
28177;DHT22;15461;41.652;9.378;2024-02-21T01:09:05;8.40;99.90
28177;DHT22;15461;41.652;9.378;2024-02-21T01:11:31;8.40;99.90
28177;DHT22;15461;41.652;9.378;2024-02-21T01:13:56;8.30;99.90
28177;DHT22;15461;41.652;9.378;2024-02-21T01:16:23;8.20;99.90
28177;DHT22;15461;41.652;9.378;2024-02-21T01:18:49;8.20;99.90
28177;DHT22;15461;41.652;9.378;2024-02-21T01:21:14;8.20;99.90
28177;DHT22;15461;41.652;9.378;2024-02-21T01:23:40;8.20;99.90
28177;DHT22;15461;41.652;9.378;2024-02-21T01:26:06;8.10;99.90
28177;DHT22;15461;41.652;9.378;2024-02-21T01:28:34;8.10;99.90
28177;DHT22;15461;41.652;9.378;2024-02-21T01:31:01;8.00;99.90
28177;DHT22;15461;41.652;9.378;2024-02-21T01:33:26;8.00;99.90
28177;DHT22;15461;41.652;9.378;2024-02-21T01:35:52;8.00;99.90
28177;DHT22;15461;41.652;9.378;2024-02-21T01:38:18;7.90;99.90
28177;DHT22;15461;41.652;9.378;2024-02-21T01:40:44;7.90;99.90
28177;DHT22;15461;41.652;9.378;2024-02-21T01:43:17;8.00;99.90
28177;DHT22;15461;41.652;9.378;2024-02-21T01:45:48;8.00;99.90
28177;DHT22;15461;41.652;9.378;2024-02-21T01:48:15;8.00;99.90
28177;DHT22;15461;41.652;9.378;2024-02-21T01:50:40;8.00;99.90
28177;DHT22;15461;41.652;9.378;2024-02-21T01:53:07;8.00;99.90
28177;DHT22;15461;41.652;9.378;2024-02-21T01:55:34;8.00;99.90
28177;DHT22;15461;41.652;9.378;2024-02-21T01:58:00;8.00;99.90
28177;DHT22;15461;41.652;9.378;2024-02-21T02:00:26;8.00;99.90
28177;DHT22;15461;41.652;9.378;2024-02-21T02:02:52;8.00;99.90
28177;DHT22;15461;41.652;9.378;2024-02-21T02:05:19;7.90;99.90
28177;DHT22;15461;41.652;9.378;2024-02-21T02:07:46;7.90;99.90
28177;DHT22;15461;41.652;9.378;2024-02-21T02:10:12;7.90;99.90
28177;DHT22;15461;41.652;9.378;2024-02-21T02:12:38;7.80;99.90
28177;DHT22;15461;41.652;9.378;2024-02-21T02:15:04;7.80;99.90
28177;DHT22;15461;41.652;9.378;2024-02-21T02:17:30;7.80;99.90
28177;DHT22;15461;41.652;9.378;2024-02-21T02:19:56;7.80;99.90
28177;DHT22;15461;41.652;9.378;2024-02-21T02:22:29;7.80;99.90
28177;DHT22;15461;41.652;9.378;2024-02-21T02:24:58;7.80;99.90
28177;DHT22;15461;41.652;9.378;2024-02-21T02:27:24;7.80;99.90
28177;DHT22;15461;41.652;9.378;2024-02-21T02:29:50;7.70;99.90
28177;DHT22;15461;41.652;9.378;2024-02-21T02:32:16;7.70;99.90
28177;DHT22;15461;41.652;9.378;2024-02-21T02:34:42;7.70;99.90
28177;DHT22;15461;41.652;9.378;2024-02-21T02:37:07;7.70;99.90
28177;DHT22;15461;41.652;9.378;2024-02-21T02:39:33;7.60;99.90
28177;DHT22;15461;41.652;9.378;2024-02-21T02:41:59;7.60;99.90
28177;DHT22;15461;41.652;9.378;2024-02-21T02:44:25;7.60;99.90
28177;DHT22;15461;41.652;9.378;2024-02-21T02:46:51;7.50;99.90
28177;DHT22;15461;41.652;9.378;2024-02-21T02:49:16;7.50;99.90
28177;DHT22;15461;41.652;9.378;2024-02-21T02:51:43;7.40;99.90
28177;DHT22;15461;41.652;9.378;2024-02-21T02:54:11;7.40;99.90
28177;DHT22;15461;41.652;9.378;2024-02-21T02:56:37;7.30;99.90
28177;DHT22;15461;41.652;9.378;2024-02-21T02:59:03;7.30;99.90
28177;DHT22;15461;41.652;9.378;2024-02-21T03:01:29;7.30;99.90
28177;DHT22;15461;41.652;9.378;2024-02-21T03:03:58;7.20;99.90
28177;DHT22;15461;41.652;9.378;2024-02-21T03:06:24;7.20;99.90
28177;DHT22;15461;41.652;9.378;2024-02-21T03:08:50;7.10;99.90
28177;DHT22;15461;41.652;9.378;2024-02-21T03:11:20;7.10;99.90
28177;DHT22;15461;41.652;9.378;2024-02-21T03:13:46;7.10;99.90
28177;DHT22;15461;41.652;9.378;2024-02-21T03:16:12;7.10;99.90
28177;DHT22;15461;41.652;9.378;2024-02-21T03:18:38;7.00;99.90
28177;DHT22;15461;41.652;9.378;2024-02-21T03:21:04;7.00;99.90
28177;DHT22;15461;41.652;9.378;2024-02-21T03:23:30;7.00;99.90
28177;DHT22;15461;41.652;9.378;2024-02-21T03:25:56;6.90;99.90
28177;DHT22;15461;41.652;9.378;2024-02-21T03:28:22;6.90;99.90
28177;DHT22;15461;41.652;9.378;2024-02-21T03:30:48;6.90;99.90
28177;DHT22;15461;41.652;9.378;2024-02-21T03:33:13;6.80;99.90
28177;DHT22;15461;41.652;9.378;2024-02-21T03:35:39;6.80;99.90
28177;DHT22;15461;41.652;9.378;2024-02-21T03:38:05;6.80;99.90
28177;DHT22;15461;41.652;9.378;2024-02-21T03:40:31;6.80;99.90
28177;DHT22;15461;41.652;9.378;2024-02-21T03:42:56;6.70;99.90
28177;DHT22;15461;41.652;9.378;2024-02-21T03:45:22;6.70;99.90
28177;DHT22;15461;41.652;9.378;2024-02-21T03:47:48;6.70;99.90
28177;DHT22;15461;41.652;9.378;2024-02-21T03:50:14;6.70;99.90
28177;DHT22;15461;41.652;9.378;2024-02-21T03:52:39;6.70;99.90
28177;DHT22;15461;41.652;9.378;2024-02-21T03:55:05;6.70;99.90
28177;DHT22;15461;41.652;9.378;2024-02-21T03:57:33;6.60;99.90
28177;DHT22;15461;41.652;9.378;2024-02-21T03:59:58;6.60;99.90
28177;DHT22;15461;41.652;9.378;2024-02-21T04:02:24;6.60;99.90
28177;DHT22;15461;41.652;9.378;2024-02-21T04:04:50;6.60;99.90
28177;DHT22;15461;41.652;9.378;2024-02-21T04:07:16;6.60;99.90
28177;DHT22;15461;41.652;9.378;2024-02-21T04:09:41;6.50;99.90
28177;DHT22;15461;41.652;9.378;2024-02-21T04:12:08;6.50;99.90
28177;DHT22;15461;41.652;9.378;2024-02-21T04:14:35;6.40;99.90
28177;DHT22;15461;41.652;9.378;2024-02-21T04:17:00;6.40;99.90
28177;DHT22;15461;41.652;9.378;2024-02-21T04:19:26;6.40;99.90
28177;DHT22;15461;41.652;9.378;2024-02-21T04:21:52;6.30;99.90
28177;DHT22;15461;41.652;9.378;2024-02-21T04:24:18;6.40;99.90
28177;DHT22;15461;41.652;9.378;2024-02-21T04:26:44;6.30;99.90
28177;DHT22;15461;41.652;9.378;2024-02-21T04:29:10;6.30;99.90
28177;DHT22;15461;41.652;9.378;2024-02-21T04:31:36;6.30;99.90
28177;DHT22;15461;41.652;9.378;2024-02-21T04:34:01;6.30;99.90
28177;DHT22;15461;41.652;9.378;2024-02-21T04:36:28;6.30;99.90
28177;DHT22;15461;41.652;9.378;2024-02-21T04:38:54;6.30;99.90
28177;DHT22;15461;41.652;9.378;2024-02-21T04:41:19;6.30;99.90
28177;DHT22;15461;41.652;9.378;2024-02-21T04:43:48;6.30;99.90
28177;DHT22;15461;41.652;9.378;2024-02-21T04:46:14;6.30;99.90
28177;DHT22;15461;41.652;9.378;2024-02-21T04:48:41;6.30;99.90
28177;DHT22;15461;41.652;9.378;2024-02-21T04:51:07;6.20;99.90
28177;DHT22;15461;41.652;9.378;2024-02-21T04:53:32;6.20;99.90
28177;DHT22;15461;41.652;9.378;2024-02-21T04:55:58;6.20;99.90
28177;DHT22;15461;41.652;9.378;2024-02-21T04:58:24;6.20;99.90
28177;DHT22;15461;41.652;9.378;2024-02-21T05:00:50;6.20;99.90
28177;DHT22;15461;41.652;9.378;2024-02-21T05:03:17;6.20;99.90
28177;DHT22;15461;41.652;9.378;2024-02-21T05:05:43;6.20;99.90
28177;DHT22;15461;41.652;9.378;2024-02-21T05:08:09;6.20;99.90
28177;DHT22;15461;41.652;9.378;2024-02-21T05:10:36;6.20;99.90
28177;DHT22;15461;41.652;9.378;2024-02-21T05:13:01;6.10;99.90
28177;DHT22;15461;41.652;9.378;2024-02-21T05:15:27;6.10;99.90
28177;DHT22;15461;41.652;9.378;2024-02-21T05:17:53;6.10;99.90
28177;DHT22;15461;41.652;9.378;2024-02-21T05:20:19;6.10;99.90
28177;DHT22;15461;41.652;9.378;2024-02-21T05:22:44;6.10;99.90
28177;DHT22;15461;41.652;9.378;2024-02-21T05:25:10;6.10;99.90
28177;DHT22;15461;41.652;9.378;2024-02-21T05:27:36;6.10;99.90
28177;DHT22;15461;41.652;9.378;2024-02-21T05:30:04;6.10;99.90
28177;DHT22;15461;41.652;9.378;2024-02-21T05:32:32;6.10;99.90
28177;DHT22;15461;41.652;9.378;2024-02-21T05:34:58;6.10;99.90
28177;DHT22;15461;41.652;9.378;2024-02-21T05:37:24;6.10;99.90
28177;DHT22;15461;41.652;9.378;2024-02-21T05:39:49;6.10;99.90
28177;DHT22;15461;41.652;9.378;2024-02-21T05:42:15;6.10;99.90
28177;DHT22;15461;41.652;9.378;2024-02-21T05:44:41;6.20;99.90
28177;DHT22;15461;41.652;9.378;2024-02-21T05:47:07;6.10;99.90
28177;DHT22;15461;41.652;9.378;2024-02-21T05:49:36;6.10;99.90
28177;DHT22;15461;41.652;9.378;2024-02-21T05:52:02;6.10;99.90
28177;DHT22;15461;41.652;9.378;2024-02-21T05:54:27;6.10;99.90
28177;DHT22;15461;41.652;9.378;2024-02-21T05:56:53;6.20;99.90
28177;DHT22;15461;41.652;9.378;2024-02-21T05:59:19;6.10;99.90
28177;DHT22;15461;41.652;9.378;2024-02-21T06:01:45;6.10;99.90
28177;DHT22;15461;41.652;9.378;2024-02-21T06:04:11;6.10;99.90
28177;DHT22;15461;41.652;9.378;2024-02-21T06:06:36;6.10;99.90
28177;DHT22;15461;41.652;9.378;2024-02-21T06:09:02;6.20;99.90
28177;DHT22;15461;41.652;9.378;2024-02-21T06:11:28;6.10;99.90
28177;DHT22;15461;41.652;9.378;2024-02-21T06:13:55;6.10;99.90
28177;DHT22;15461;41.652;9.378;2024-02-21T06:16:20;6.20;99.90
28177;DHT22;15461;41.652;9.378;2024-02-21T06:18:46;6.10;99.90
28177;DHT22;15461;41.652;9.378;2024-02-21T06:21:12;6.10;99.90
28177;DHT22;15461;41.652;9.378;2024-02-21T06:23:38;6.20;99.90
28177;DHT22;15461;41.652;9.378;2024-02-21T06:26:03;6.20;99.90
28177;DHT22;15461;41.652;9.378;2024-02-21T06:28:29;6.20;99.90
28177;DHT22;15461;41.652;9.378;2024-02-21T06:30:55;6.20;99.90
28177;DHT22;15461;41.652;9.378;2024-02-21T06:33:21;6.30;99.90
28177;DHT22;15461;41.652;9.378;2024-02-21T06:35:50;6.30;99.90
28177;DHT22;15461;41.652;9.378;2024-02-21T06:38:19;6.30;99.90
28177;DHT22;15461;41.652;9.378;2024-02-21T06:40:44;6.40;99.90
28177;DHT22;15461;41.652;9.378;2024-02-21T06:43:16;6.50;99.90
28177;DHT22;15461;41.652;9.378;2024-02-21T06:45:42;6.50;99.90
28177;DHT22;15461;41.652;9.378;2024-02-21T06:48:08;6.60;99.90
28177;DHT22;15461;41.652;9.378;2024-02-21T06:50:33;6.60;99.90
28177;DHT22;15461;41.652;9.378;2024-02-21T06:52:59;6.70;99.90
28177;DHT22;15461;41.652;9.378;2024-02-21T06:55:25;6.80;99.90
28177;DHT22;15461;41.652;9.378;2024-02-21T06:57:50;6.90;99.90
28177;DHT22;15461;41.652;9.378;2024-02-21T07:00:17;7.10;99.90
28177;DHT22;15461;41.652;9.378;2024-02-21T07:02:42;7.20;99.90
28177;DHT22;15461;41.652;9.378;2024-02-21T07:05:08;7.40;99.90
28177;DHT22;15461;41.652;9.378;2024-02-21T07:07:34;7.50;99.90
28177;DHT22;15461;41.652;9.378;2024-02-21T07:10:00;7.60;99.90
28177;DHT22;15461;41.652;9.378;2024-02-21T07:12:26;7.80;99.90
28177;DHT22;15461;41.652;9.378;2024-02-21T07:14:52;8.00;99.90
28177;DHT22;15461;41.652;9.378;2024-02-21T07:17:17;8.20;99.90
28177;DHT22;15461;41.652;9.378;2024-02-21T07:19:43;8.40;99.90
28177;DHT22;15461;41.652;9.378;2024-02-21T07:22:09;8.50;99.90
28177;DHT22;15461;41.652;9.378;2024-02-21T07:24:35;8.70;99.90
28177;DHT22;15461;41.652;9.378;2024-02-21T07:27:00;9.00;99.90
28177;DHT22;15461;41.652;9.378;2024-02-21T07:29:30;9.20;99.90
28177;DHT22;15461;41.652;9.378;2024-02-21T07:31:56;9.40;99.90
28177;DHT22;15461;41.652;9.378;2024-02-21T07:34:22;9.60;99.90
28177;DHT22;15461;41.652;9.378;2024-02-21T07:36:48;9.90;99.90
28177;DHT22;15461;41.652;9.378;2024-02-21T07:39:13;10.10;99.90
28177;DHT22;15461;41.652;9.378;2024-02-21T07:41:39;10.30;99.90
28177;DHT22;15461;41.652;9.378;2024-02-21T07:44:06;10.50;99.90
28177;DHT22;15461;41.652;9.378;2024-02-21T07:46:32;10.90;99.90
28177;DHT22;15461;41.652;9.378;2024-02-21T07:48:58;11.30;99.90
28177;DHT22;15461;41.652;9.378;2024-02-21T07:51:27;11.60;99.90
28177;DHT22;15461;41.652;9.378;2024-02-21T07:53:53;11.90;99.90
28177;DHT22;15461;41.652;9.378;2024-02-21T07:56:19;12.20;99.90
28177;DHT22;15461;41.652;9.378;2024-02-21T07:58:45;12.40;99.90
28177;DHT22;15461;41.652;9.378;2024-02-21T08:01:11;12.70;99.90
28177;DHT22;15461;41.652;9.378;2024-02-21T08:03:36;12.90;99.90
28177;DHT22;15461;41.652;9.378;2024-02-21T08:06:03;13.10;99.90
28177;DHT22;15461;41.652;9.378;2024-02-21T08:08:29;13.30;99.90
28177;DHT22;15461;41.652;9.378;2024-02-21T08:10:55;13.50;99.90
28177;DHT22;15461;41.652;9.378;2024-02-21T08:13:21;13.60;99.90
28177;DHT22;15461;41.652;9.378;2024-02-21T08:15:47;13.80;99.90
28177;DHT22;15461;41.652;9.378;2024-02-21T08:18:12;14.00;99.90
28177;DHT22;15461;41.652;9.378;2024-02-21T08:20:38;14.20;99.90
28177;DHT22;15461;41.652;9.378;2024-02-21T08:23:04;14.40;99.90
28177;DHT22;15461;41.652;9.378;2024-02-21T08:25:30;14.50;99.90
28177;DHT22;15461;41.652;9.378;2024-02-21T08:27:58;14.70;99.90
28177;DHT22;15461;41.652;9.378;2024-02-21T08:30:24;14.90;99.90
28177;DHT22;15461;41.652;9.378;2024-02-21T08:32:50;15.00;99.90
28177;DHT22;15461;41.652;9.378;2024-02-21T08:35:16;15.20;99.90
28177;DHT22;15461;41.652;9.378;2024-02-21T08:37:44;15.30;99.90
28177;DHT22;15461;41.652;9.378;2024-02-21T08:40:10;15.40;99.90
28177;DHT22;15461;41.652;9.378;2024-02-21T08:42:38;15.50;99.90
28177;DHT22;15461;41.652;9.378;2024-02-21T08:45:04;15.50;99.90
28177;DHT22;15461;41.652;9.378;2024-02-21T08:47:30;15.60;99.90
28177;DHT22;15461;41.652;9.378;2024-02-21T08:49:56;15.70;99.90
28177;DHT22;15461;41.652;9.378;2024-02-21T08:52:22;15.80;99.90
28177;DHT22;15461;41.652;9.378;2024-02-21T08:54:48;15.90;99.90
28177;DHT22;15461;41.652;9.378;2024-02-21T08:57:14;15.90;99.90
28177;DHT22;15461;41.652;9.378;2024-02-21T08:59:40;16.00;99.90
28177;DHT22;15461;41.652;9.378;2024-02-21T09:02:05;16.00;99.90
28177;DHT22;15461;41.652;9.378;2024-02-21T09:04:33;16.20;99.90
28177;DHT22;15461;41.652;9.378;2024-02-21T09:06:59;16.20;99.90
28177;DHT22;15461;41.652;9.378;2024-02-21T09:09:25;16.20;99.90
28177;DHT22;15461;41.652;9.378;2024-02-21T09:11:50;16.20;99.90
28177;DHT22;15461;41.652;9.378;2024-02-21T09:14:17;16.20;99.90
28177;DHT22;15461;41.652;9.378;2024-02-21T09:16:43;16.20;99.90
28177;DHT22;15461;41.652;9.378;2024-02-21T09:19:09;16.30;99.90
28177;DHT22;15461;41.652;9.378;2024-02-21T09:21:39;16.30;99.90
28177;DHT22;15461;41.652;9.378;2024-02-21T09:24:06;16.30;99.90
28177;DHT22;15461;41.652;9.378;2024-02-21T09:26:31;16.40;99.90
28177;DHT22;15461;41.652;9.378;2024-02-21T09:28:57;16.50;99.90
28177;DHT22;15461;41.652;9.378;2024-02-21T09:31:23;16.50;99.90
28177;DHT22;15461;41.652;9.378;2024-02-21T09:33:49;16.50;99.90
28177;DHT22;15461;41.652;9.378;2024-02-21T09:36:15;16.60;99.90
28177;DHT22;15461;41.652;9.378;2024-02-21T09:38:40;16.40;99.90
28177;DHT22;15461;41.652;9.378;2024-02-21T09:41:22;16.40;99.90
28177;DHT22;15461;41.652;9.378;2024-02-21T09:43:50;16.50;99.90
28177;DHT22;15461;41.652;9.378;2024-02-21T09:46:21;16.60;99.90
28177;DHT22;15461;41.652;9.378;2024-02-21T09:51:42;16.60;99.90
28177;DHT22;15461;41.652;9.378;2024-02-21T09:54:08;16.60;99.90
28177;DHT22;15461;41.652;9.378;2024-02-21T09:56:34;16.60;99.90
28177;DHT22;15461;41.652;9.378;2024-02-21T09:59:02;16.50;99.90
28177;DHT22;15461;41.652;9.378;2024-02-21T10:01:31;16.60;99.90
28177;DHT22;15461;41.652;9.378;2024-02-21T10:03:57;16.60;99.90
28177;DHT22;15461;41.652;9.378;2024-02-21T10:06:23;16.50;99.90
28177;DHT22;15461;41.652;9.378;2024-02-21T10:08:53;16.40;99.90
28177;DHT22;15461;41.652;9.378;2024-02-21T10:11:25;16.40;99.90
28177;DHT22;15461;41.652;9.378;2024-02-21T10:14:02;16.50;99.90
28177;DHT22;15461;41.652;9.378;2024-02-21T10:16:29;16.40;99.90
28177;DHT22;15461;41.652;9.378;2024-02-21T10:18:55;16.40;99.90
28177;DHT22;15461;41.652;9.378;2024-02-21T10:21:20;16.30;99.90
28177;DHT22;15461;41.652;9.378;2024-02-21T10:23:48;16.20;99.90
28177;DHT22;15461;41.652;9.378;2024-02-21T10:26:15;16.20;99.90
28177;DHT22;15461;41.652;9.378;2024-02-21T10:28:41;16.20;99.90
28177;DHT22;15461;41.652;9.378;2024-02-21T10:31:29;16.30;99.90
28177;DHT22;15461;41.652;9.378;2024-02-21T10:33:58;16.40;99.90
28177;DHT22;15461;41.652;9.378;2024-02-21T10:36:24;16.50;99.90
28177;DHT22;15461;41.652;9.378;2024-02-21T10:38:51;16.40;99.90
28177;DHT22;15461;41.652;9.378;2024-02-21T10:41:19;16.30;99.90
28177;DHT22;15461;41.652;9.378;2024-02-21T10:43:50;16.20;99.90
28177;DHT22;15461;41.652;9.378;2024-02-21T10:46:19;16.20;99.90
28177;DHT22;15461;41.652;9.378;2024-02-21T10:48:46;16.20;99.90
28177;DHT22;15461;41.652;9.378;2024-02-21T10:51:19;16.30;99.90
28177;DHT22;15461;41.652;9.378;2024-02-21T10:58:44;16.40;99.90
28177;DHT22;15461;41.652;9.378;2024-02-21T11:01:10;16.40;99.90
28177;DHT22;15461;41.652;9.378;2024-02-21T11:03:38;16.50;99.90
28177;DHT22;15461;41.652;9.378;2024-02-21T11:06:04;16.50;99.90
28177;DHT22;15461;41.652;9.378;2024-02-21T11:08:30;16.60;99.90
28177;DHT22;15461;41.652;9.378;2024-02-21T11:10:57;16.60;99.90
28177;DHT22;15461;41.652;9.378;2024-02-21T11:16:11;16.70;99.90
28177;DHT22;15461;41.652;9.378;2024-02-21T11:18:38;16.60;99.90
28177;DHT22;15461;41.652;9.378;2024-02-21T11:21:04;16.60;99.90
28177;DHT22;15461;41.652;9.378;2024-02-21T11:23:31;16.70;99.90
28177;DHT22;15461;41.652;9.378;2024-02-21T11:26:09;16.60;99.90
28177;DHT22;15461;41.652;9.378;2024-02-21T11:28:36;16.70;99.90
28177;DHT22;15461;41.652;9.378;2024-02-21T11:31:13;16.60;99.90
28177;DHT22;15461;41.652;9.378;2024-02-21T11:33:42;16.60;99.90
28177;DHT22;15461;41.652;9.378;2024-02-21T11:36:21;16.60;99.90
28177;DHT22;15461;41.652;9.378;2024-02-21T11:38:48;16.70;99.90
28177;DHT22;15461;41.652;9.378;2024-02-21T11:41:13;16.60;99.90
28177;DHT22;15461;41.652;9.378;2024-02-21T11:43:39;16.60;99.90
28177;DHT22;15461;41.652;9.378;2024-02-21T11:46:07;16.50;99.90
28177;DHT22;15461;41.652;9.378;2024-02-21T11:48:32;16.50;99.90
28177;DHT22;15461;41.652;9.378;2024-02-21T11:50:58;16.50;99.90
28177;DHT22;15461;41.652;9.378;2024-02-21T11:53:26;16.50;99.90
28177;DHT22;15461;41.652;9.378;2024-02-21T11:55:56;16.60;99.90
28177;DHT22;15461;41.652;9.378;2024-02-21T11:58:22;16.60;99.90
28177;DHT22;15461;41.652;9.378;2024-02-21T12:00:48;16.60;99.90
28177;DHT22;15461;41.652;9.378;2024-02-21T12:03:15;16.60;99.90
28177;DHT22;15461;41.652;9.378;2024-02-21T12:05:41;16.60;99.90
28177;DHT22;15461;41.652;9.378;2024-02-21T12:08:07;16.60;99.90
28177;DHT22;15461;41.652;9.378;2024-02-21T12:10:35;16.60;99.90
28177;DHT22;15461;41.652;9.378;2024-02-21T12:13:10;16.50;99.90
28177;DHT22;15461;41.652;9.378;2024-02-21T12:15:38;16.30;99.90
28177;DHT22;15461;41.652;9.378;2024-02-21T12:18:04;16.20;99.90
28177;DHT22;15461;41.652;9.378;2024-02-21T12:20:30;16.10;99.90
28177;DHT22;15461;41.652;9.378;2024-02-21T12:23:00;16.10;99.90
28177;DHT22;15461;41.652;9.378;2024-02-21T12:25:26;16.10;99.90
28177;DHT22;15461;41.652;9.378;2024-02-21T12:27:54;16.00;99.90
28177;DHT22;15461;41.652;9.378;2024-02-21T12:30:21;15.90;99.90
28177;DHT22;15461;41.652;9.378;2024-02-21T12:32:47;15.90;99.90
28177;DHT22;15461;41.652;9.378;2024-02-21T12:35:14;15.90;99.90
28177;DHT22;15461;41.652;9.378;2024-02-21T12:37:40;15.80;99.90
28177;DHT22;15461;41.652;9.378;2024-02-21T12:40:06;15.90;99.90
28177;DHT22;15461;41.652;9.378;2024-02-21T12:42:33;16.10;99.90
28177;DHT22;15461;41.652;9.378;2024-02-21T12:44:59;16.30;99.90
28177;DHT22;15461;41.652;9.378;2024-02-21T12:47:25;16.30;99.90
28177;DHT22;15461;41.652;9.378;2024-02-21T12:49:52;16.30;99.90
28177;DHT22;15461;41.652;9.378;2024-02-21T12:52:18;16.40;99.90
28177;DHT22;15461;41.652;9.378;2024-02-21T12:54:44;16.50;99.90
28177;DHT22;15461;41.652;9.378;2024-02-21T12:57:10;16.60;99.90
28177;DHT22;15461;41.652;9.378;2024-02-21T12:59:36;16.70;99.90
28177;DHT22;15461;41.652;9.378;2024-02-21T13:02:02;16.70;99.90
28177;DHT22;15461;41.652;9.378;2024-02-21T13:04:27;16.90;99.90
28177;DHT22;15461;41.652;9.378;2024-02-21T13:06:53;16.90;99.90
28177;DHT22;15461;41.652;9.378;2024-02-21T13:09:20;17.00;99.90
28177;DHT22;15461;41.652;9.378;2024-02-21T13:11:46;17.10;99.90
28177;DHT22;15461;41.652;9.378;2024-02-21T13:14:12;17.20;99.90
28177;DHT22;15461;41.652;9.378;2024-02-21T13:16:38;17.20;99.90
28177;DHT22;15461;41.652;9.378;2024-02-21T13:19:07;17.20;99.90
28177;DHT22;15461;41.652;9.378;2024-02-21T13:21:36;17.20;99.90
28177;DHT22;15461;41.652;9.378;2024-02-21T13:24:02;17.20;99.90
28177;DHT22;15461;41.652;9.378;2024-02-21T13:26:28;17.20;99.90
28177;DHT22;15461;41.652;9.378;2024-02-21T13:28:54;17.20;99.90
28177;DHT22;15461;41.652;9.378;2024-02-21T13:31:21;17.20;99.90
28177;DHT22;15461;41.652;9.378;2024-02-21T13:33:46;17.20;99.90
28177;DHT22;15461;41.652;9.378;2024-02-21T13:36:12;17.20;99.90
28177;DHT22;15461;41.652;9.378;2024-02-21T13:38:38;17.30;99.90
28177;DHT22;15461;41.652;9.378;2024-02-21T13:41:08;17.40;99.90
28177;DHT22;15461;41.652;9.378;2024-02-21T13:43:34;17.40;99.90
28177;DHT22;15461;41.652;9.378;2024-02-21T13:46:01;17.50;99.90
28177;DHT22;15461;41.652;9.378;2024-02-21T13:48:28;17.50;99.90
28177;DHT22;15461;41.652;9.378;2024-02-21T13:50:55;17.50;99.90
28177;DHT22;15461;41.652;9.378;2024-02-21T13:53:20;17.70;99.90
28177;DHT22;15461;41.652;9.378;2024-02-21T13:55:47;17.70;99.90
28177;DHT22;15461;41.652;9.378;2024-02-21T13:58:12;17.70;99.90
28177;DHT22;15461;41.652;9.378;2024-02-21T14:00:38;17.80;99.90
28177;DHT22;15461;41.652;9.378;2024-02-21T14:03:04;17.80;99.90
28177;DHT22;15461;41.652;9.378;2024-02-21T14:05:30;17.70;99.90
28177;DHT22;15461;41.652;9.378;2024-02-21T14:07:56;17.70;99.90
28177;DHT22;15461;41.652;9.378;2024-02-21T14:10:22;17.70;99.90
28177;DHT22;15461;41.652;9.378;2024-02-21T14:12:48;17.80;99.90
28177;DHT22;15461;41.652;9.378;2024-02-21T14:15:15;17.50;99.90
28177;DHT22;15461;41.652;9.378;2024-02-21T14:17:42;17.20;99.90
28177;DHT22;15461;41.652;9.378;2024-02-21T14:20:08;16.90;99.90
28177;DHT22;15461;41.652;9.378;2024-02-21T14:22:35;16.70;99.90
28177;DHT22;15461;41.652;9.378;2024-02-21T14:25:03;16.50;99.90
28177;DHT22;15461;41.652;9.378;2024-02-21T14:27:31;16.30;99.90
28177;DHT22;15461;41.652;9.378;2024-02-21T14:29:57;16.20;99.90
28177;DHT22;15461;41.652;9.378;2024-02-21T14:32:23;16.10;99.90
28177;DHT22;15461;41.652;9.378;2024-02-21T14:34:49;16.00;99.90
28177;DHT22;15461;41.652;9.378;2024-02-21T14:37:16;15.90;99.90
28177;DHT22;15461;41.652;9.378;2024-02-21T14:39:42;15.90;99.90
28177;DHT22;15461;41.652;9.378;2024-02-21T14:42:08;15.90;99.90
28177;DHT22;15461;41.652;9.378;2024-02-21T14:44:35;15.90;99.90
28177;DHT22;15461;41.652;9.378;2024-02-21T14:47:02;16.00;99.90
28177;DHT22;15461;41.652;9.378;2024-02-21T14:49:29;16.10;99.90
28177;DHT22;15461;41.652;9.378;2024-02-21T14:51:55;16.10;99.90
28177;DHT22;15461;41.652;9.378;2024-02-21T14:54:21;16.20;99.90
28177;DHT22;15461;41.652;9.378;2024-02-21T14:56:47;16.40;99.90
28177;DHT22;15461;41.652;9.378;2024-02-21T14:59:13;16.60;99.90
28177;DHT22;15461;41.652;9.378;2024-02-21T15:01:39;16.70;99.90
28177;DHT22;15461;41.652;9.378;2024-02-21T15:04:05;16.80;99.90
28177;DHT22;15461;41.652;9.378;2024-02-21T15:06:31;16.90;99.90
28177;DHT22;15461;41.652;9.378;2024-02-21T15:08:57;16.90;99.90
28177;DHT22;15461;41.652;9.378;2024-02-21T15:11:24;16.80;99.90
28177;DHT22;15461;41.652;9.378;2024-02-21T15:13:50;16.60;99.90
28177;DHT22;15461;41.652;9.378;2024-02-21T15:16:16;16.50;99.90
28177;DHT22;15461;41.652;9.378;2024-02-21T15:18:42;16.40;99.90
28177;DHT22;15461;41.652;9.378;2024-02-21T15:21:08;16.30;99.90
28177;DHT22;15461;41.652;9.378;2024-02-21T15:23:39;16.20;99.90
28177;DHT22;15461;41.652;9.378;2024-02-21T15:26:05;16.10;99.90
28177;DHT22;15461;41.652;9.378;2024-02-21T15:28:46;16.10;99.90
28177;DHT22;15461;41.652;9.378;2024-02-21T15:31:20;16.00;99.90
28177;DHT22;15461;41.652;9.378;2024-02-21T15:33:47;15.80;99.90
28177;DHT22;15461;41.652;9.378;2024-02-21T15:36:13;15.80;99.90
28177;DHT22;15461;41.652;9.378;2024-02-21T15:38:39;15.80;99.90
28177;DHT22;15461;41.652;9.378;2024-02-21T15:41:05;15.70;99.90
28177;DHT22;15461;41.652;9.378;2024-02-21T15:43:31;15.70;99.90